Time;durP1;ratioP1;P1;durP2;ratioP2;P2;SDS_P1;SDS_P2;PMS_P1;PMS_P2;Temp;Humidity;BMP_temperature;BMP_pressure;BME280_temperature;BME280_humidity;BME280_pressure;Samples;Min_cycle;Max_cycle;Signal;HPM_P1;HPM_P2
2022/05/04 00:00:25;;;;;;;10.63;3.25;;;;;;;8.70;80.74;101925.81;5048430;28;20563;-48
2022/05/04 00:02:53;;;;;;;10.35;3.58;;;;;;;8.72;80.98;101927.47;5049264;28;20041;-48
2022/05/04 00:05:22;;;;;;;12.60;3.50;;;;;;;8.72;80.71;101922.22;5049609;28;20088;-50
2022/05/04 00:07:50;;;;;;;13.02;3.47;;;;;;;8.77;80.90;101924.69;5047446;28;20067;-49
2022/05/04 00:10:22;;;;;;;10.10;3.78;;;;;;;8.79;80.41;101928.09;5049319;28;20119;-51
2022/05/04 00:12:50;;;;;;;9.52;3.42;;;;;;;8.87;80.25;101933.88;5050070;28;20435;-51
2022/05/04 00:15:19;;;;;;;13.23;3.90;;;;;;;8.86;79.44;101929.56;5048073;28;20144;-46
2022/05/04 00:17:47;;;;;;;9.57;3.83;;;;;;;8.86;79.08;101933.94;5049904;28;20128;-47
2022/05/04 00:20:15;;;;;;;11.30;3.22;;;;;;;8.80;79.30;101932.44;5052104;28;20094;-49
2022/05/04 00:22:44;;;;;;;14.27;3.40;;;;;;;8.86;79.27;101926.94;5051342;28;20096;-47
2022/05/04 00:25:13;;;;;;;11.07;3.55;;;;;;;8.82;79.25;101927.13;5050661;28;20041;-48
2022/05/04 00:27:42;;;;;;;12.30;3.35;;;;;;;8.84;79.82;101928.75;5045993;28;20045;-51
2022/05/04 00:30:11;;;;;;;10.40;3.50;;;;;;;8.88;79.19;101921.63;5050183;28;20055;-49
2022/05/04 00:32:39;;;;;;;11.57;3.67;;;;;;;8.88;79.31;101919.00;5051532;28;20056;-50
2022/05/04 00:35:08;;;;;;;11.60;3.70;;;;;;;8.79;79.31;101915.84;5051709;28;20514;-49
2022/05/04 00:37:37;;;;;;;9.98;3.30;;;;;;;8.89;79.09;101915.44;5051161;28;20085;-48
2022/05/04 00:40:06;;;;;;;11.85;3.20;;;;;;;8.84;79.29;101914.81;5047365;28;20103;-54
2022/05/04 00:42:35;;;;;;;13.30;3.60;;;;;;;8.89;79.17;101911.06;5047721;28;20412;-47
2022/05/04 00:45:05;;;;;;;9.75;3.88;;;;;;;8.93;79.03;101923.16;5051630;28;20397;-45
2022/05/04 00:47:34;;;;;;;9.88;3.53;;;;;;;8.92;78.88;101917.97;5051491;28;20053;-48
2022/05/04 00:50:04;;;;;;;10.27;3.47;;;;;;;8.89;78.66;101916.31;5046853;28;20091;-46
2022/05/04 00:52:34;;;;;;;14.75;3.88;;;;;;;8.86;78.55;101921.69;5048713;28;20381;-48
2022/05/04 00:55:04;;;;;;;9.68;3.70;;;;;;;8.75;78.65;101923.88;5049614;28;20080;-50
2022/05/04 01:00:22;;;;;;;10.50;3.42;;;;;;;8.72;79.04;101916.16;5050659;28;20530;-48
2022/05/04 01:02:51;;;;;;;9.18;3.47;;;;;;;8.76;78.99;101915.94;5051347;28;20099;-49
2022/05/04 01:05:19;;;;;;;11.15;3.95;;;;;;;8.77;78.79;101924.69;5051570;28;20041;-49
2022/05/04 01:07:48;;;;;;;12.35;3.60;;;;;;;8.68;79.38;101919.81;5051451;28;20404;-47
2022/05/04 01:10:16;;;;;;;11.25;3.40;;;;;;;8.65;79.14;101926.03;5051253;28;20052;-48
2022/05/04 01:12:49;;;;;;;12.50;3.58;;;;;;;8.69;79.57;101926.78;5050859;28;20128;-48
2022/05/04 01:15:18;;;;;;;11.10;3.75;;;;;;;8.70;79.30;101926.69;5051026;28;20045;-51
2022/05/04 01:17:48;;;;;;;11.60;3.28;;;;;;;8.66;79.30;101925.13;5051232;28;20053;-49
2022/05/04 01:20:17;;;;;;;10.50;3.20;;;;;;;8.72;78.63;101931.88;5051138;28;20045;-51
2022/05/04 01:22:47;;;;;;;11.15;3.15;;;;;;;8.72;79.51;101924.00;5053906;28;20049;-50
2022/05/04 01:25:15;;;;;;;11.60;3.40;;;;;;;8.69;79.09;101919.75;5054820;28;20583;-46
2022/05/04 01:27:44;;;;;;;11.48;3.35;;;;;;;8.76;78.93;101925.59;5054616;28;20059;-47
2022/05/04 01:30:13;;;;;;;10.60;3.30;;;;;;;8.71;79.23;101927.53;5054607;28;20045;-49
2022/05/04 01:32:41;;;;;;;9.63;2.97;;;;;;;8.72;79.12;101929.25;5053270;28;20510;-47
2022/05/04 01:35:09;;;;;;;10.15;3.08;;;;;;;8.68;78.68;101925.06;5051595;28;20128;-49
2022/05/04 01:37:38;;;;;;;11.52;3.45;;;;;;;8.66;78.73;101921.63;5050595;28;20061;-47
2022/05/04 01:40:09;;;;;;;8.30;3.00;;;;;;;8.69;78.87;101914.50;5053928;28;20460;-47
2022/05/04 01:42:37;;;;;;;10.65;2.88;;;;;;;8.71;78.85;101912.69;5054097;28;20536;-48
2022/05/04 01:45:08;;;;;;;12.95;3.42;;;;;;;8.71;78.75;101909.19;5052603;28;20045;-50
2022/05/04 01:47:38;;;;;;;11.00;3.42;;;;;;;8.66;78.09;101911.13;5050820;28;20045;-47
2022/05/04 01:50:07;;;;;;;10.75;2.95;;;;;;;8.58;78.46;101907.06;5052737;28;20060;-49
2022/05/04 01:52:35;;;;;;;6.88;3.03;;;;;;;8.54;78.75;101909.88;5053851;28;20136;-49
2022/05/04 01:55:04;;;;;;;12.68;2.97;;;;;;;8.52;78.76;101922.19;5053893;28;20043;-51
2022/05/04 01:57:34;;;;;;;15.40;3.78;;;;;;;8.46;78.35;101913.63;5053360;28;20095;-45
2022/05/04 02:00:03;;;;;;;12.45;3.25;;;;;;;8.49;78.79;101912.66;5050898;28;20049;-51
2022/05/04 02:02:31;;;;;;;12.68;3.20;;;;;;;8.48;78.66;101910.97;5049764;28;20087;-48
2022/05/04 02:05:00;;;;;;;12.50;3.35;;;;;;;8.51;78.61;101912.59;5052429;28;20049;-46
2022/05/04 02:07:29;;;;;;;9.98;3.15;;;;;;;8.41;78.65;101909.44;5053696;28;20132;-48
2022/05/04 02:09:57;;;;;;;8.85;3.28;;;;;;;8.39;79.23;101906.06;5052007;28;20045;-50
2022/05/04 02:12:27;;;;;;;8.80;2.85;;;;;;;8.36;79.48;101908.81;5047800;28;20128;-51
2022/05/04 02:14:57;;;;;;;9.63;3.40;;;;;;;8.44;79.28;101909.34;5052385;28;20045;-53
2022/05/04 02:17:26;;;;;;;12.10;3.60;;;;;;;8.34;79.09;101914.06;5053808;28;20072;-48
2022/05/04 02:19:54;;;;;;;7.35;2.53;;;;;;;8.29;78.76;101921.28;5053520;28;20041;-50
2022/05/04 02:22:23;;;;;;;9.10;3.10;;;;;;;8.37;78.57;101911.34;5053597;28;20053;-48
2022/05/04 02:24:51;;;;;;;11.02;3.47;;;;;;;8.28;78.73;101914.34;5053250;28;20033;-47
2022/05/04 02:27:20;;;;;;;11.48;2.67;;;;;;;8.29;79.03;101922.13;5053488;28;20091;-50
2022/05/04 02:29:48;;;;;;;12.65;4.32;;;;;;;8.22;79.09;101907.56;5052774;28;20151;-51
2022/05/04 02:32:18;;;;;;;12.77;2.95;;;;;;;8.22;79.86;101915.44;5049658;28;20088;-50
2022/05/04 02:40:18;;;;;;;9.25;3.10;;;;;;;8.18;79.14;101908.59;5053283;28;20072;-51
2022/05/04 02:42:46;;;;;;;13.13;3.33;;;;;;;8.31;79.83;101905.50;5053161;28;20048;-49
2022/05/04 02:45:15;;;;;;;7.55;3.28;;;;;;;8.24;79.51;101902.25;5052081;28;20408;-49
2022/05/04 02:47:45;;;;;;;12.35;3.53;;;;;;;8.20;79.38;101905.91;5048721;28;20057;-49
2022/05/04 02:50:15;;;;;;;8.13;2.88;;;;;;;8.27;78.93;101902.13;5051372;28;20045;-48
2022/05/04 02:52:44;;;;;;;9.52;3.03;;;;;;;8.29;78.90;101895.09;5052824;28;20091;-49
2022/05/04 02:55:12;;;;;;;11.93;2.88;;;;;;;8.26;78.84;101901.28;5052365;28;20055;-50
2022/05/04 02:57:40;;;;;;;8.77;3.20;;;;;;;8.19;79.49;101891.94;5047080;28;20507;-47
2022/05/04 03:00:10;;;;;;;15.50;3.80;;;;;;;8.23;78.81;101896.13;5050105;28;20056;-46
2022/05/04 03:02:38;;;;;;;10.55;3.05;;;;;;;8.15;79.37;101894.75;5052802;28;20053;-47
2022/05/04 03:05:10;;;;;;;10.88;2.78;;;;;;;8.20;79.26;101883.16;5049632;28;20507;-49
2022/05/04 03:07:39;;;;;;;9.93;3.33;;;;;;;8.25;79.46;101888.25;5049091;28;20126;-51
2022/05/04 03:10:08;;;;;;;9.93;2.75;;;;;;;8.21;79.69;101890.13;5052209;28;20073;-50
2022/05/04 03:12:37;;;;;;;12.02;3.92;;;;;;;8.26;79.70;101892.56;5052305;28;20099;-47
2022/05/04 03:15:06;;;;;;;10.52;3.30;;;;;;;8.27;79.61;101891.66;5052478;28;20447;-51
2022/05/04 03:17:35;;;;;;;9.90;3.08;;;;;;;8.28;79.42;101894.22;5052629;28;20051;-49
2022/05/04 03:20:06;;;;;;;10.23;3.03;;;;;;;8.18;79.46;101890.25;5052305;28;20152;-48
2022/05/04 03:22:36;;;;;;;8.57;2.85;;;;;;;8.16;79.79;101889.44;5052212;28;20049;-51
2022/05/04 03:25:07;;;;;;;11.65;3.13;;;;;;;8.17;80.28;101887.69;5050897;28;20384;-52
2022/05/04 03:27:35;;;;;;;10.15;3.38;;;;;;;8.19;79.77;101885.84;5052514;28;20061;-51
2022/05/04 03:30:05;;;;;;;11.63;3.40;;;;;;;8.16;79.80;101884.19;5050426;28;20106;-49
2022/05/04 03:32:33;;;;;;;11.20;3.40;;;;;;;8.07;79.80;101884.53;5051525;28;20148;-47
2022/05/04 03:35:02;;;;;;;10.57;3.55;;;;;;;8.04;80.37;101887.28;5052364;28;20048;-48
2022/05/04 03:37:30;;;;;;;10.73;3.50;;;;;;;8.05;79.98;101886.38;5051837;28;20045;-47
2022/05/04 03:40:00;;;;;;;11.38;3.22;;;;;;;7.95;80.69;101884.09;5051957;28;20098;-48
2022/05/04 03:42:28;;;;;;;10.63;3.50;;;;;;;7.85;81.16;101879.25;5046456;28;20103;-50
2022/05/04 03:44:56;;;;;;;10.00;3.88;;;;;;;7.86;81.41;101876.59;5047353;28;20142;-47
2022/05/04 03:47:25;;;;;;;9.88;3.10;;;;;;;7.91;81.39;101882.50;5052136;28;20511;-50
2022/05/04 03:49:53;;;;;;;12.75;3.65;;;;;;;7.90;80.78;101886.03;5051790;28;20048;-47
2022/05/04 03:52:22;;;;;;;11.80;3.42;;;;;;;7.79;81.69;101882.97;5052034;28;20045;-51
2022/05/04 03:54:50;;;;;;;13.23;3.50;;;;;;;7.79;81.12;101875.97;5051914;28;20103;-48
2022/05/04 03:57:20;;;;;;;13.57;3.40;;;;;;;7.80;81.44;101884.69;5052002;28;20084;-49
2022/05/04 03:59:48;;;;;;;10.00;3.13;;;;;;;7.78;81.72;101882.13;5051305;28;20089;-49
2022/05/04 04:02:17;;;;;;;12.18;3.55;;;;;;;7.77;81.96;101888.28;5051885;28;20075;-48
2022/05/04 04:04:45;;;;;;;9.75;3.25;;;;;;;7.90;81.57;101888.66;5051620;28;20049;-48
2022/05/04 04:07:14;;;;;;;9.52;3.17;;;;;;;7.87;81.76;101890.56;5048961;28;20091;-50
2022/05/04 04:09:42;;;;;;;11.73;2.97;;;;;;;7.91;81.56;101889.53;5047254;28;20049;-49
2022/05/04 04:12:11;;;;;;;10.27;3.30;;;;;;;7.93;81.71;101888.56;5051559;28;20565;-50
2022/05/04 04:14:41;;;;;;;12.68;3.58;;;;;;;7.86;80.52;101887.06;5051003;28;20115;-51
2022/05/04 04:17:09;;;;;;;11.93;3.75;;;;;;;7.75;81.20;101884.00;5048296;28;20049;-48
2022/05/04 04:19:38;;;;;;;10.32;3.35;;;;;;;7.79;81.14;101894.28;5049206;28;20413;-46
2022/05/04 04:22:05;;;;;;;9.82;2.97;;;;;;;7.73;81.26;101893.66;5051849;28;20061;-47
2022/05/04 04:24:33;;;;;;;12.82;3.50;;;;;;;7.74;81.35;101891.00;5048180;28;20049;-48
2022/05/04 04:27:02;;;;;;;13.68;3.10;;;;;;;7.78;80.97;101892.59;5046061;28;20135;-49
2022/05/04 04:29:30;;;;;;;7.97;3.30;;;;;;;7.75;80.43;101884.84;5051588;28;20530;-48
2022/05/04 04:32:00;;;;;;;11.02;3.28;;;;;;;7.60;81.16;101886.25;5051356;28;20063;-50
2022/05/04 04:34:28;;;;;;;10.73;3.80;;;;;;;7.69;80.93;101889.44;5051474;28;20511;-50
2022/05/04 04:36:56;;;;;;;15.07;3.70;;;;;;;7.65;80.34;101888.72;5051297;28;20124;-49
2022/05/04 04:39:24;;;;;;;8.77;3.13;;;;;;;7.61;81.32;101885.34;5046734;28;20060;-48
2022/05/04 04:41:53;;;;;;;12.43;3.45;;;;;;;7.60;80.95;101899.34;5047162;28;20052;-50
2022/05/04 04:44:21;;;;;;;10.93;3.80;;;;;;;7.57;80.61;101896.84;5051614;28;20561;-49
2022/05/04 04:46:50;;;;;;;11.13;3.28;;;;;;;7.50;81.40;101889.25;5047160;28;20080;-48
2022/05/04 04:49:19;;;;;;;12.70;4.05;;;;;;;7.48;81.57;101891.91;5047242;28;20049;-52
2022/05/04 04:51:48;;;;;;;14.07;3.88;;;;;;;7.50;81.10;101892.75;5051038;28;20500;-53
2022/05/04 04:54:16;;;;;;;15.98;3.50;;;;;;;7.50;81.20;101892.75;5051297;28;20049;-48
2022/05/04 04:56:44;;;;;;;11.85;3.90;;;;;;;7.47;81.47;101897.22;5052801;28;20045;-48
2022/05/04 04:59:12;;;;;;;11.38;3.63;;;;;;;7.41;81.08;101893.06;5055007;28;20103;-48
2022/05/04 05:01:41;;;;;;;11.45;3.70;;;;;;;7.45;82.12;101889.41;5054737;28;20041;-49
2022/05/04 05:04:09;;;;;;;16.65;3.63;;;;;;;7.40;81.83;101893.97;5054432;28;20060;-47
2022/05/04 05:06:39;;;;;;;12.48;3.90;;;;;;;7.39;81.69;101893.13;5051068;28;20072;-49
2022/05/04 05:09:07;;;;;;;11.25;3.58;;;;;;;7.36;81.53;101897.59;5052437;28;20083;-48
2022/05/04 05:11:35;;;;;;;9.40;3.58;;;;;;;7.34;82.18;101891.56;5051414;28;20114;-47
2022/05/04 05:16:50;;;;;;;12.77;3.92;;;;;;;7.32;81.96;101896.00;5053998;28;20448;-49
2022/05/04 05:19:18;;;;;;;10.27;3.53;;;;;;;7.28;81.79;101900.50;5054617;28;20044;-48
2022/05/04 05:21:47;;;;;;;13.13;4.10;;;;;;;7.37;81.98;101896.69;5054416;28;20055;-47
2022/05/04 05:24:16;;;;;;;10.23;3.38;;;;;;;7.32;81.34;101894.25;5054556;28;20053;-54
2022/05/04 05:26:44;;;;;;;12.30;3.70;;;;;;;7.43;81.73;101902.56;5054286;28;20045;-49
2022/05/04 05:29:12;;;;;;;11.93;3.58;;;;;;;7.41;81.28;101900.91;5053889;28;20127;-47
2022/05/04 05:31:41;;;;;;;11.80;3.50;;;;;;;7.39;80.71;101903.59;5050557;28;20555;-52
2022/05/04 05:34:09;;;;;;;10.75;3.30;;;;;;;7.42;80.37;101906.09;5051531;28;20053;-50
2022/05/04 05:36:37;;;;;;;12.27;3.80;;;;;;;7.44;80.76;101895.56;5054196;28;20445;-47
2022/05/04 05:39:07;;;;;;;8.93;3.20;;;;;;;7.53;80.88;101900.47;5054465;28;20044;-49
2022/05/04 05:41:35;;;;;;;11.68;3.78;;;;;;;7.65;80.43;101896.56;5048399;28;20049;-51
2022/05/04 05:44:04;;;;;;;15.02;3.38;;;;;;;7.67;80.00;101896.50;5049581;28;20118;-48
2022/05/04 05:46:32;;;;;;;14.57;4.43;;;;;;;7.72;79.50;101903.28;5053848;28;20056;-49
2022/05/04 05:49:01;;;;;;;11.60;3.35;;;;;;;7.82;79.44;101890.69;5054277;28;20110;-49
2022/05/04 05:51:29;;;;;;;8.95;3.55;;;;;;;7.92;79.41;101899.94;5051929;28;20400;-50
2022/05/04 05:53:57;;;;;;;8.68;3.08;;;;;;;8.00;77.87;101898.78;5050050;28;20110;-51
2022/05/04 05:56:27;;;;;;;10.65;3.92;;;;;;;8.08;77.79;101902.81;5052956;28;20523;-49
2022/05/04 05:58:55;;;;;;;9.48;3.35;;;;;;;8.15;78.34;101902.59;5049182;28;20059;-53
2022/05/04 06:01:23;;;;;;;11.43;3.70;;;;;;;8.21;78.34;101907.63;5051985;28;20124;-48
2022/05/04 06:03:52;;;;;;;11.52;3.15;;;;;;;8.29;78.52;101908.19;5053767;28;20056;-49
2022/05/04 06:06:21;;;;;;;11.32;3.70;;;;;;;8.36;77.91;101916.66;5053762;28;20098;-48
2022/05/04 06:08:49;;;;;;;11.48;3.10;;;;;;;8.37;75.32;101907.88;5053134;28;20049;-47
2022/05/04 06:11:17;;;;;;;9.63;3.05;;;;;;;8.38;74.28;101905.19;5052121;28;20099;-49
2022/05/04 06:13:47;;;;;;;10.27;3.08;;;;;;;8.41;74.31;101905.09;5053484;28;20132;-52
2022/05/04 06:16:15;;;;;;;9.90;3.17;;;;;;;8.53;74.29;101898.50;5053592;28;20441;-53
2022/05/04 06:18:43;;;;;;;10.80;3.35;;;;;;;8.67;74.12;101911.09;5053077;28;20496;-51
2022/05/04 06:21:12;;;;;;;12.80;3.10;;;;;;;8.78;73.00;101914.13;5053223;28;20507;-49
2022/05/04 06:23:40;;;;;;;8.48;3.13;;;;;;;8.81;72.09;101918.41;5053591;28;20037;-48
2022/05/04 06:26:08;;;;;;;9.80;3.92;;;;;;;8.92;71.56;101916.19;5053606;28;20053;-50
2022/05/04 06:28:36;;;;;;;12.70;3.35;;;;;;;9.05;72.06;101913.06;5053229;28;20037;-51
2022/05/04 06:34:11;;;;;;;12.82;3.15;;;;;;;9.20;70.40;101911.56;4993669;28;20058;-50
2022/05/04 06:36:41;;;;;;;11.10;3.25;;;;;;;9.29;69.99;101927.75;5053149;28;20053;-47
2022/05/04 06:39:10;;;;;;;13.30;3.35;;;;;;;9.49;69.83;101915.56;5052805;28;20048;-48
2022/05/04 06:41:40;;;;;;;12.50;3.00;;;;;;;9.63;69.18;101913.19;5052875;28;20610;-49
2022/05/04 06:44:09;;;;;;;10.27;2.95;;;;;;;9.68;68.44;101927.88;5053302;28;20057;-49
2022/05/04 06:46:40;;;;;;;10.20;3.28;;;;;;;9.76;66.44;101915.25;5049213;28;20045;-49
2022/05/04 06:49:10;;;;;;;13.00;3.37;;;;;;;9.88;66.02;101917.34;5050201;28;20136;-50
2022/05/04 06:51:38;;;;;;;9.35;3.15;;;;;;;9.92;66.13;101918.91;5052817;28;20484;-49
2022/05/04 06:54:08;;;;;;;11.90;2.97;;;;;;;10.04;65.89;101921.91;5050228;28;20057;-52
2022/05/04 06:56:51;;;;;;;10.70;2.72;;;;;;;10.11;65.25;101915.44;5047548;28;20163;-53
2022/05/04 06:59:19;;;;;;;9.65;3.30;;;;;;;10.22;65.13;101925.47;5052474;28;20100;-50
2022/05/04 07:01:49;;;;;;;11.35;3.58;;;;;;;10.28;65.79;101918.16;5051511;28;20091;-48
2022/05/04 07:04:17;;;;;;;9.70;2.53;;;;;;;10.41;66.35;101904.44;5049901;28;20102;-50
2022/05/04 07:06:46;;;;;;;10.13;2.90;;;;;;;10.60;65.70;101909.69;5051256;28;20384;-50
2022/05/04 07:09:15;;;;;;;8.77;2.85;;;;;;;10.76;63.71;101913.25;5052680;28;20049;-48
2022/05/04 07:11:43;;;;;;;10.27;3.17;;;;;;;10.90;64.26;101912.56;5052641;28;20140;-49
2022/05/04 07:14:17;;;;;;;12.40;2.90;;;;;;;11.01;62.72;101912.03;5052698;28;20076;-50
2022/05/04 07:16:46;;;;;;;10.60;2.78;;;;;;;11.23;62.76;101914.44;5052503;28;20438;-48
2022/05/04 07:19:17;;;;;;;11.60;2.90;;;;;;;11.44;61.92;101909.88;5051514;28;20106;-49
2022/05/04 07:21:46;;;;;;;14.20;3.47;;;;;;;11.61;61.92;101903.69;5052256;28;20044;-50
2022/05/04 07:24:14;;;;;;;12.18;2.90;;;;;;;11.81;60.72;101899.19;5052476;28;20053;-47
2022/05/04 07:26:43;;;;;;;8.50;3.17;;;;;;;12.03;59.85;101905.97;5050967;28;20052;-48
2022/05/04 07:29:11;;;;;;;9.77;2.92;;;;;;;12.11;59.55;101894.06;5052366;28;20376;-49
2022/05/04 07:31:42;;;;;;;10.43;3.35;;;;;;;12.11;58.94;101891.41;5049894;28;20419;-51
2022/05/04 07:34:10;;;;;;;7.38;2.45;;;;;;;12.29;60.25;101902.72;5048748;28;20835;-49
2022/05/04 07:36:40;;;;;;;11.65;2.78;;;;;;;12.40;58.23;101901.28;5051415;28;20518;-49
2022/05/04 07:42:21;;;;;;;9.50;3.00;;;;;;;12.56;57.51;101909.19;5048655;28;20147;-47
2022/05/04 07:44:42;;;;;;;7.72;2.90;;;;;;;12.91;55.09;101912.44;5052173;28;20515;-51
2022/05/04 07:47:11;;;;;;;18.58;4.03;;;;;;;12.97;54.25;101906.78;5052428;28;20500;-47
2022/05/04 07:49:39;;;;;;;9.48;3.30;;;;;;;12.82;54.46;101905.91;5050545;28;20053;-49
2022/05/04 07:52:09;;;;;;;10.68;2.88;;;;;;;12.87;55.94;101915.34;5048170;28;20136;-50
2022/05/04 07:54:37;;;;;;;11.07;3.05;;;;;;;13.09;56.34;101905.25;5050605;28;20107;-48
2022/05/04 07:57:08;;;;;;;11.32;3.08;;;;;;;13.26;54.63;101906.03;5051942;28;20114;-50
2022/05/04 07:59:36;;;;;;;8.80;3.38;;;;;;;13.34;53.94;101911.69;5051502;28;20056;-48
2022/05/04 08:04:51;;;;;;;12.27;3.72;;;;;;;13.82;53.24;101912.31;5051651;28;20055;-50
2022/05/04 08:07:21;;;;;;;11.57;3.83;;;;;;;14.10;52.00;101907.94;5051628;28;20049;-49
2022/05/04 08:09:49;;;;;;;11.55;3.50;;;;;;;14.27;52.10;101909.50;5051628;28;20045;-49
2022/05/04 08:12:18;;;;;;;12.73;4.20;;;;;;;14.45;50.93;101911.94;5051872;28;20052;-51
2022/05/04 08:14:46;;;;;;;11.60;3.33;;;;;;;14.42;50.35;101901.53;5051788;28;20044;-54
2022/05/04 08:17:15;;;;;;;11.90;3.47;;;;;;;14.52;51.51;101906.16;5051742;28;20049;-48
2022/05/04 08:19:44;;;;;;;11.05;3.75;;;;;;;14.54;50.64;101906.88;5048294;28;20081;-51
2022/05/04 08:22:14;;;;;;;12.30;3.90;;;;;;;14.73;50.64;101905.72;5047564;28;20118;-48
2022/05/04 08:24:44;;;;;;;9.30;3.33;;;;;;;14.66;50.30;101896.50;5051517;28;20067;-49
2022/05/04 08:27:12;;;;;;;12.07;3.33;;;;;;;14.83;51.26;101905.94;5049681;28;20041;-49
2022/05/04 08:29:41;;;;;;;8.35;3.17;;;;;;;14.94;49.79;101902.59;5047707;28;20638;-51
2022/05/04 08:32:09;;;;;;;7.93;3.33;;;;;;;15.18;50.24;101906.22;5053529;28;20049;-52
2022/05/04 08:34:38;;;;;;;9.05;3.55;;;;;;;14.89;49.01;101905.56;5055042;28;20048;-52
2022/05/04 08:37:07;;;;;;;12.10;4.10;;;;;;;15.09;48.90;101901.53;5051697;28;20084;-49
2022/05/04 08:39:35;;;;;;;10.00;4.30;;;;;;;15.14;48.13;101899.44;5052558;28;20383;-50
2022/05/04 08:42:06;;;;;;;11.73;3.90;;;;;;;15.39;47.16;101895.09;5055431;28;20049;-50
2022/05/04 08:44:35;;;;;;;9.77;3.35;;;;;;;15.57;47.48;101898.31;5055297;28;20049;-49
2022/05/04 08:47:07;;;;;;;10.88;3.53;;;;;;;15.53;47.26;101894.19;5055387;28;20087;-53
2022/05/04 08:49:37;;;;;;;10.83;3.77;;;;;;;15.73;46.25;101898.06;5050974;28;20423;-52
2022/05/04 08:52:07;;;;;;;10.60;4.20;;;;;;;15.97;46.50;101892.84;5052339;28;20076;-50
2022/05/04 08:54:35;;;;;;;12.90;3.58;;;;;;;16.19;46.24;101893.97;5055002;28;20053;-49
2022/05/04 08:57:05;;;;;;;9.90;3.70;;;;;;;16.19;47.84;101886.84;5050617;28;20139;-50
2022/05/04 08:59:33;;;;;;;14.63;4.10;;;;;;;16.15;46.13;101885.38;5050893;28;20041;-52
2022/05/04 09:02:02;;;;;;;10.40;3.47;;;;;;;16.49;45.92;101885.56;5054419;28;20048;-51
2022/05/04 09:04:31;;;;;;;9.50;3.55;;;;;;;16.77;44.35;101886.19;5054044;28;20087;-48
2022/05/04 09:07:01;;;;;;;11.10;3.53;;;;;;;16.63;43.20;101884.53;5051036;28;20076;-46
2022/05/04 09:09:35;;;;;;;10.93;3.30;;;;;;;16.64;43.11;101880.91;5053083;28;20079;-48
2022/05/04 09:12:05;;;;;;;7.80;3.17;;;;;;;16.49;43.31;101882.06;5054888;28;20041;-50
2022/05/04 09:14:35;;;;;;;9.93;3.65;;;;;;;16.43;43.94;101871.88;5051368;28;20063;-50
2022/05/04 09:17:04;;;;;;;9.90;3.20;;;;;;;16.96;44.28;101879.50;5051580;28;20123;-50
2022/05/04 09:19:32;;;;;;;9.82;3.47;;;;;;;17.32;42.48;101883.78;5054214;28;20045;-51
2022/05/04 09:22:01;;;;;;;9.75;3.00;;;;;;;17.48;43.29;101878.13;5054719;28;20105;-46
2022/05/04 09:24:30;;;;;;;10.00;3.17;;;;;;;17.58;43.65;101870.28;5054561;28;20504;-48
2022/05/04 09:26:59;;;;;;;9.23;3.08;;;;;;;17.74;42.66;101864.59;5048758;28;20061;-52
2022/05/04 09:29:35;;;;;;;8.30;3.13;;;;;;;18.33;41.61;101855.41;5051233;28;20033;-51
2022/05/04 09:32:13;;;;;;;10.27;3.47;;;;;;;18.07;40.62;101861.06;5054556;28;20148;-52
2022/05/04 09:34:50;;;;;;;8.68;3.03;;;;;;;18.11;41.18;101858.16;5054665;28;20049;-50
2022/05/04 09:45:53;;;;;;;7.65;2.63;;;;;;;18.77;40.25;101850.03;5053195;28;20059;-53
2022/05/04 09:48:30;;;;;;;8.60;2.95;;;;;;;19.15;37.75;101851.28;5050338;28;20041;-48
2022/05/04 09:51:01;;;;;;;11.77;2.97;;;;;;;19.29;37.84;101850.09;5051859;28;20454;-51
2022/05/04 09:53:30;;;;;;;7.45;2.67;;;;;;;19.02;37.31;101847.97;5054059;28;20056;-47
2022/05/04 09:55:59;;;;;;;10.90;2.90;;;;;;;19.48;38.04;101853.81;5053980;28;20049;-48
2022/05/04 09:58:28;;;;;;;10.05;2.83;;;;;;;19.18;36.95;101847.50;5054018;28;20391;-50
2022/05/04 10:00:59;;;;;;;9.23;2.42;;;;;;;19.94;37.17;101847.13;5053963;28;20495;-51
2022/05/04 10:03:28;;;;;;;6.35;2.50;;;;;;;19.85;35.67;101843.47;5052631;28;20080;-51
2022/05/04 10:05:59;;;;;;;8.90;2.47;;;;;;;19.96;37.91;101845.19;5053950;28;20448;-51
2022/05/04 10:08:28;;;;;;;7.80;2.40;;;;;;;20.18;36.34;101835.22;5053673;28;20057;-47
2022/05/04 10:10:56;;;;;;;6.85;2.40;;;;;;;20.35;35.99;101826.50;5053691;28;20500;-50
2022/05/04 10:13:25;;;;;;;10.57;2.80;;;;;;;20.31;35.65;101829.59;5053777;28;20056;-48
2022/05/04 10:15:58;;;;;;;6.55;2.35;;;;;;;19.93;35.62;101840.09;5053564;28;20041;-49
2022/05/04 10:18:30;;;;;;;7.63;2.45;;;;;;;20.16;36.00;101832.69;5053798;28;20061;-50
2022/05/04 10:21:05;;;;;;;7.37;2.70;;;;;;;20.65;35.58;101832.69;5053526;28;20134;-52
2022/05/04 10:23:40;;;;;;;6.95;2.33;;;;;;;20.50;35.09;101837.59;5053403;28;20064;-51
2022/05/04 10:26:12;;;;;;;6.43;2.40;;;;;;;21.03;34.98;101833.63;5053866;28;20052;-50
2022/05/04 10:30:29;;;;;;;7.10;2.60;;;;;;;20.79;35.29;101835.94;5053400;28;20053;-51
2022/05/04 10:31:34;;;;;;;8.68;2.42;;;;;;;20.70;33.86;101833.13;5050481;28;20052;-51
2022/05/04 10:34:07;;;;;;;7.38;2.33;;;;;;;20.60;34.42;101833.13;5049825;28;20128;-52
2022/05/04 10:36:46;;;;;;;6.60;2.30;;;;;;;20.99;35.18;101823.38;5053575;28;20145;-51
2022/05/04 10:39:20;;;;;;;9.68;2.85;;;;;;;21.18;35.30;101827.81;5052142;28;20085;-52
2022/05/04 10:41:49;;;;;;;6.93;2.72;;;;;;;21.28;33.85;101824.13;5053039;28;20690;-50
2022/05/04 10:44:18;;;;;;;7.93;3.00;;;;;;;21.55;33.10;101824.31;5053218;28;20083;-51
2022/05/04 10:46:50;;;;;;;9.45;3.10;;;;;;;21.33;35.39;101823.69;5053116;28;20047;-52
2022/05/04 10:49:18;;;;;;;6.10;2.67;;;;;;;21.88;33.56;101822.00;5052880;28;20048;-53
2022/05/04 10:51:47;;;;;;;7.80;2.38;;;;;;;22.06;32.23;101817.53;5050481;28;20059;-54
2022/05/04 10:54:18;;;;;;;7.75;2.85;;;;;;;21.41;32.59;101820.28;5050275;28;20041;-54
2022/05/04 10:56:54;;;;;;;7.43;3.13;;;;;;;21.66;33.14;101818.75;5052753;28;20102;-53
2022/05/04 10:59:25;;;;;;;11.02;3.13;;;;;;;21.63;33.44;101812.88;5052927;28;20515;-52
2022/05/04 11:02:00;;;;;;;7.70;2.85;;;;;;;22.29;32.36;101804.50;5051009;28;20538;-50
2022/05/04 11:04:29;;;;;;;8.25;2.65;;;;;;;22.62;30.81;101801.28;5049852;28;20048;-53
2022/05/04 11:07:05;;;;;;;8.48;2.80;;;;;;;22.22;31.69;101799.91;5052023;28;20707;-53
2022/05/04 11:09:38;;;;;;;6.18;2.50;;;;;;;22.31;33.03;101790.97;5052463;28;20094;-53
2022/05/04 11:12:08;;;;;;;6.30;2.63;;;;;;;22.59;32.46;101798.91;5048987;28;20504;-53
2022/05/04 11:14:36;;;;;;;11.32;3.13;;;;;;;22.66;32.42;101799.97;5049557;28;20500;-52
2022/05/04 11:17:12;;;;;;;6.72;2.45;;;;;;;22.42;30.81;101814.84;5051836;28;20566;-50
2022/05/04 11:19:44;;;;;;;5.65;2.50;;;;;;;21.94;30.68;101805.34;5052367;28;20045;-51
2022/05/04 11:22:13;;;;;;;9.32;2.55;;;;;;;22.59;30.30;101806.94;5050884;28;20123;-52
2022/05/04 11:25:01;;;;;;;7.60;2.53;;;;;;;22.22;30.01;101802.59;5048354;28;20056;-51
2022/05/04 11:27:30;;;;;;;9.07;2.50;;;;;;;22.95;29.08;101804.19;5051077;28;20055;-51
2022/05/04 11:29:58;;;;;;;9.80;3.00;;;;;;;22.38;29.03;101802.78;5051828;28;20495;-52
2022/05/04 11:32:29;;;;;;;7.05;2.88;;;;;;;22.89;29.41;101799.44;5048621;28;20400;-48
2022/05/04 11:34:57;;;;;;;9.93;3.08;;;;;;;23.21;29.42;101793.44;5049689;28;20049;-50
2022/05/04 11:37:27;;;;;;;9.20;2.75;;;;;;;23.55;29.77;101784.53;5052369;28;20036;-52
2022/05/04 11:39:55;;;;;;;8.27;2.80;;;;;;;23.19;30.14;101794.63;5052016;28;20037;-54
2022/05/04 11:42:23;;;;;;;6.95;2.67;;;;;;;23.31;29.38;101795.19;5052217;28;20480;-53
2022/05/04 11:44:54;;;;;;;7.25;2.67;;;;;;;23.26;30.18;101787.59;5050868;28;20049;-53
2022/05/04 11:47:23;;;;;;;6.95;3.40;;;;;;;23.73;28.97;101789.78;5052332;28;20075;-49
2022/05/04 11:49:55;;;;;;;8.50;2.40;;;;;;;23.78;29.04;101776.69;5051888;28;20373;-50
2022/05/04 11:52:23;;;;;;;10.23;3.15;;;;;;;23.96;29.26;101773.91;5052015;28;20049;-50
2022/05/04 11:54:51;;;;;;;8.70;2.80;;;;;;;24.01;27.81;101777.94;5047471;28;20139;-50
2022/05/04 11:57:20;;;;;;;7.22;3.10;;;;;;;24.18;28.52;101770.75;5046753;28;20040;-50
2022/05/04 11:59:51;;;;;;;8.57;3.08;;;;;;;23.81;27.93;101756.75;5051214;28;20500;-51
2022/05/04 12:02:21;;;;;;;7.40;3.05;;;;;;;23.09;29.20;101779.44;5051842;28;20384;-49